Salt Pond, Missouri
Current Conditions -  °F | °C
As of 12:58 PM on Thursday 23 Oct 2014 (Local Time) from KSZL Reporting Station
Broken Clouds Broken Clouds  
Wind Chill: 64°   Ceiling: 5000
Heat Index: 64°   Visibility: 10mi
Dew Point: 57°   Wind: 10mph
Humidity: 78%   Direction: 210°SSW
Pressure: 30.12"   Gusts: NA
Location:  38.9707°N, 93.4332°W
Report Text: KSZL 231758Z 21009KT 10SM BKN050 18/14 A3012 RMK AO2A SLP201 T01750137 10180 20128 58004 $
Loading
Personal Weather Stations






























Interactive Weather Map
Tropical Storm Tracking
New forecast layout! Learn more

10-Day Weather Forecast

Advertisements
Track Severe Weather on mobile